Time;durP1;ratioP1;P1;durP2;ratioP2;P2;SDS_P1;SDS_P2;PMS_P1;PMS_P2;Temp;Humidity;BMP_temperature;BMP_pressure;BME280_temperature;BME280_humidity;BME280_pressure;Samples;Min_cycle;Max_cycle;Signal;HPM_P1;HPM_P2
2022/09/05 00:01:56;;;;;;;11.00;5.43;;;;;;;16.67;100.00;101977.94;7382742;19;20018;-70
2022/09/05 00:04:43;;;;;;;10.05;5.38;;;;;;;16.59;100.00;101974.34;7376553;19;20014;-73
2022/09/05 00:07:23;;;;;;;9.98;5.45;;;;;;;16.55;100.00;101972.56;7381505;19;20034;-73
2022/09/05 00:10:23;;;;;;;9.38;4.90;;;;;;;16.50;100.00;101971.63;7382054;19;20533;-73
2022/09/05 00:12:58;;;;;;;9.98;5.15;;;;;;;16.46;100.00;101975.13;7379111;19;20011;-73
2022/09/05 00:15:53;;;;;;;9.45;5.28;;;;;;;16.44;100.00;101971.59;7381563;19;20076;-72
2022/09/05 00:18:47;;;;;;;12.00;5.05;;;;;;;16.42;100.00;101972.44;7380466;19;20014;-73
2022/09/05 00:21:53;;;;;;;8.77;4.97;;;;;;;16.39;100.00;101970.66;7381338;19;20025;-73
2022/09/05 00:24:54;;;;;;;7.93;4.53;;;;;;;16.35;100.00;101966.22;7376494;19;20407;-74
2022/09/05 00:27:52;;;;;;;8.85;5.10;;;;;;;16.33;100.00;101970.63;7380822;19;20404;-74
2022/09/05 00:30:26;;;;;;;10.38;5.63;;;;;;;16.27;100.00;101963.53;7381448;19;20014;-73
2022/09/05 00:33:30;;;;;;;12.05;5.60;;;;;;;16.28;100.00;101969.69;7379977;19;20117;-74
2022/09/05 00:36:27;;;;;;;10.07;5.43;;;;;;;16.25;100.00;101949.38;7379872;19;20035;-73
2022/09/05 00:39:08;;;;;;;9.18;5.13;;;;;;;16.23;100.00;101956.44;7379010;19;20027;-74
2022/09/05 00:41:39;;;;;;;9.55;6.07;;;;;;;16.24;100.00;101959.97;7379319;19;20023;-74
2022/09/05 00:44:11;;;;;;;10.85;5.95;;;;;;;16.23;100.00;101961.72;7380788;19;20601;-72
2022/09/05 00:46:46;;;;;;;12.77;6.72;;;;;;;16.21;100.00;101959.94;7382824;19;20014;-71
2022/09/05 00:49:25;;;;;;;11.32;5.70;;;;;;;16.19;100.00;101951.09;7379683;19;20011;-72
2022/09/05 00:52:05;;;;;;;14.00;5.80;;;;;;;16.15;100.00;101957.25;7382141;19;20027;-72
2022/09/05 00:54:53;;;;;;;13.18;6.15;;;;;;;16.11;100.00;101943.09;7378087;19;20011;-72
2022/09/05 00:57:49;;;;;;;11.80;6.90;;;;;;;16.12;100.00;101941.34;7376864;19;20022;-72
2022/09/05 01:00:22;;;;;;;13.02;6.25;;;;;;;16.12;100.00;101946.63;7377759;19;20040;-72
2022/09/05 01:03:08;;;;;;;;;;;;;;;16.09;100.00;101947.50;7377244;19;20043;-71
2022/09/05 01:05:51;;;;;;;9.73;6.47;;;;;;;16.07;100.00;101951.88;7377685;19;19915;-72
2022/09/05 01:08:41;;;;;;;11.88;6.97;;;;;;;16.07;100.00;101948.34;7374981;19;20044;-73
2022/09/05 01:11:21;;;;;;;13.32;6.28;;;;;;;16.08;100.00;101960.72;7376438;19;20007;-73
2022/09/05 01:14:03;;;;;;;12.70;7.28;;;;;;;16.07;100.00;101954.53;7375184;19;20011;-73
2022/09/05 01:17:04;;;;;;;15.10;7.05;;;;;;;16.05;100.00;101950.97;7376437;19;20006;-71
2022/09/05 01:19:47;;;;;;;14.98;7.57;;;;;;;16.08;100.00;101952.78;7377529;19;20208;-72
2022/09/05 01:22:37;;;;;;;13.40;8.57;;;;;;;16.08;100.00;101953.66;7376261;19;20021;-72
2022/09/05 01:25:27;;;;;;;13.57;7.72;;;;;;;16.09;100.00;101951.91;7378775;19;20452;-71
2022/09/05 01:28:07;;;;;;;16.55;9.13;;;;;;;16.13;100.00;101948.41;7375557;19;20018;-72
2022/09/05 01:31:08;;;;;;;14.63;8.45;;;;;;;16.10;100.00;101953.66;7378760;19;20400;-72
2022/09/05 01:33:48;;;;;;;13.63;8.13;;;;;;;16.09;100.00;101951.91;7379390;19;20078;-73
2022/09/05 01:36:57;;;;;;;13.68;7.43;;;;;;;16.07;100.00;101951.00;7380380;19;20014;-73
2022/09/05 01:39:45;;;;;;;14.63;7.97;;;;;;;16.09;100.00;101941.31;7384393;19;20010;-72
2022/09/05 01:42:43;;;;;;;17.60;8.88;;;;;;;16.11;100.00;101940.44;7386776;19;20446;-73
2022/09/05 01:45:22;;;;;;;18.33;8.65;;;;;;;16.10;100.00;101940.44;7388118;19;20007;-71
2022/09/05 01:48:04;;;;;;;16.95;8.85;;;;;;;16.08;100.00;101950.13;7378500;19;20007;-72
2022/09/05 01:50:45;;;;;;;17.10;8.80;;;;;;;16.07;100.00;101937.75;7390602;19;20023;-72
2022/09/05 01:53:34;;;;;;;17.00;8.90;;;;;;;16.09;100.00;101947.50;7378048;19;20014;-73
2022/09/05 01:56:29;;;;;;;16.65;8.98;;;;;;;16.09;100.00;101941.31;7382978;19;20035;-72
2022/09/05 01:59:31;;;;;;;19.20;9.23;;;;;;;16.08;100.00;101934.25;7379584;19;20007;-72
2022/09/05 02:02:27;;;;;;;17.92;9.93;;;;;;;16.05;100.00;101945.69;7376220;19;20108;-74
2022/09/05 02:05:13;;;;;;;16.45;9.90;;;;;;;16.07;100.00;101937.75;7377875;19;20015;-74
2022/09/05 02:08:15;;;;;;;15.15;9.15;;;;;;;16.05;100.00;101950.09;7378726;19;20082;-74
2022/09/05 02:11:06;;;;;;;17.52;9.57;;;;;;;16.03;100.00;101943.03;7374890;19;20106;-73
2022/09/05 02:13:50;;;;;;;16.77;8.88;;;;;;;16.03;100.00;101948.31;7370356;19;20118;-72
2022/09/05 02:16:27;;;;;;;17.42;9.80;;;;;;;16.06;100.00;101951.88;7373689;19;20013;-73
2022/09/05 02:19:10;;;;;;;19.80;10.25;;;;;;;16.03;100.00;101950.97;7373937;19;20074;-72
2022/09/05 02:21:53;;;;;;;20.15;9.95;;;;;;;16.03;100.00;101945.69;7374922;19;22040;-72
2022/09/05 02:24:29;;;;;;;20.55;10.45;;;;;;;16.07;100.00;101943.06;7372435;19;20049;-73
2022/09/05 02:27:15;;;;;;;16.48;10.15;;;;;;;16.07;100.00;101949.25;7375815;19;20015;-72
2022/09/05 02:30:12;;;;;;;20.17;10.25;;;;;;;16.08;100.00;101939.53;7373588;19;20025;-71
2022/09/05 02:33:05;;;;;;;17.33;10.18;;;;;;;16.09;100.00;101952.78;7372978;19;20018;-72
2022/09/05 02:35:45;;;;;;;19.02;9.90;;;;;;;16.09;100.00;101954.53;7373739;19;20011;-71
2022/09/05 02:38:27;;;;;;;19.02;10.10;;;;;;;16.09;100.00;101955.44;7370479;19;20086;-73
2022/09/05 02:41:29;;;;;;;18.95;10.27;;;;;;;16.05;100.00;101948.34;7378316;19;20014;-72
2022/09/05 02:44:26;;;;;;;18.98;9.60;;;;;;;16.06;100.00;101946.56;7379929;19;20680;-72
2022/09/05 02:47:23;;;;;;;17.70;10.27;;;;;;;16.03;100.00;101947.44;7383445;19;20014;-73
2022/09/05 02:50:09;;;;;;;18.38;10.43;;;;;;;16.01;100.00;101951.84;7378108;19;20007;-72
2022/09/05 02:53:07;;;;;;;18.48;9.88;;;;;;;15.97;100.00;101942.97;7371296;19;20011;-72
2022/09/05 02:56:17;;;;;;;20.05;9.70;;;;;;;15.96;100.00;101949.16;7378004;19;20011;-72
2022/09/05 02:59:19;;;;;;;16.08;9.35;;;;;;;15.92;100.00;101951.75;7381643;19;20010;-71
2022/09/05 03:02:16;;;;;;;17.10;10.15;;;;;;;15.90;100.00;101946.44;7377873;19;20027;-72
2022/09/05 03:05:04;;;;;;;20.90;10.32;;;;;;;15.87;100.00;101956.13;7382672;19;20753;-73
2022/09/05 03:07:57;;;;;;;20.10;11.48;;;;;;;15.83;100.00;101952.56;7377596;19;20074;-73
2022/09/05 03:11:10;;;;;;;19.45;10.23;;;;;;;15.80;100.00;101949.88;7378396;19;20015;-73
2022/09/05 03:14:11;;;;;;;19.90;11.25;;;;;;;15.77;100.00;101939.25;7374063;19;20014;-73
2022/09/05 03:17:06;;;;;;;21.13;11.15;;;;;;;15.73;100.00;101945.41;7376892;19;20034;-73
2022/09/05 03:20:11;;;;;;;18.50;10.75;;;;;;;15.70;100.00;101942.72;7378422;19;20014;-74
2022/09/05 03:23:05;;;;;;;24.70;11.05;;;;;;;15.66;100.00;101946.22;7379743;19;20047;-73
2022/09/05 03:26:05;;;;;;;18.00;10.60;;;;;;;15.67;100.00;101947.97;7376948;19;20029;-73
2022/09/05 03:29:09;;;;;;;20.95;10.82;;;;;;;15.68;100.00;101941.81;7379479;19;20327;-73
2022/09/05 03:32:12;;;;;;;18.40;10.15;;;;;;;15.68;100.00;101949.75;7379754;19;20021;-73
2022/09/05 03:35:09;;;;;;;24.58;11.75;;;;;;;15.64;100.00;101938.25;7381201;19;20011;-73
2022/09/05 03:38:00;;;;;;;19.42;11.43;;;;;;;15.62;100.00;101932.06;7378939;19;20028;-74
2022/09/05 03:40:56;;;;;;;21.13;12.23;;;;;;;15.62;100.00;101933.81;7378841;19;20496;-73
2022/09/05 03:43:49;;;;;;;21.27;11.85;;;;;;;15.61;100.00;101940.88;7378196;19;20409;-73
2022/09/05 03:46:34;;;;;;;21.58;12.02;;;;;;;15.62;100.00;101944.41;7378478;19;20388;-73
2022/09/05 03:49:26;;;;;;;21.15;11.55;;;;;;;15.61;100.00;101940.88;7377973;19;20010;-73
2022/09/05 03:52:26;;;;;;;19.20;11.23;;;;;;;15.59;100.00;101939.13;7375303;19;20726;-73
2022/09/05 03:55:48;;;;;;;21.10;12.07;;;;;;;15.58;100.00;101937.34;7383827;19;20014;-74
2022/09/05 03:58:57;;;;;;;24.60;12.13;;;;;;;15.59;100.00;101954.97;7380673;19;20476;-73
2022/09/05 04:01:37;;;;;;;20.55;11.95;;;;;;;15.59;100.00;101947.06;7381012;19;20014;-74
2022/09/05 04:04:36;;;;;;;21.73;12.55;;;;;;;15.59;100.00;101944.41;7382603;19;20021;-71
2022/09/05 04:07:30;;;;;;;22.33;12.95;;;;;;;15.60;100.00;101935.59;7379309;19;20060;-74
2022/09/05 04:10:30;;;;;;;23.42;12.23;;;;;;;15.59;100.00;101939.13;7379131;19;20007;-74
2022/09/05 04:13:08;;;;;;;22.50;11.48;;;;;;;15.60;100.00;101940.91;7380160;19;20018;-74
2022/09/05 04:15:43;;;;;;;25.45;12.60;;;;;;;15.61;100.00;101945.28;7381565;19;20018;-75
2022/09/05 04:18:28;;;;;;;21.73;12.25;;;;;;;15.61;100.00;101942.63;7380499;19;20125;-74
2022/09/05 04:21:08;;;;;;;25.48;12.90;;;;;;;15.59;100.00;101933.84;7380502;19;20506;-72
2022/09/05 04:23:50;;;;;;;24.80;12.60;;;;;;;15.60;100.00;101932.97;7381861;19;20010;-72
2022/09/05 04:26:40;;;;;;;22.65;12.45;;;;;;;15.56;100.00;101932.00;7381185;19;20129;-72
2022/09/05 04:29:29;;;;;;;24.60;13.27;;;;;;;15.55;100.00;101932.00;7378604;19;20549;-72
2022/09/05 04:32:12;;;;;;;26.23;14.57;;;;;;;15.54;100.00;101932.88;7380122;19;20018;-72
2022/09/05 04:35:25;;;;;;;19.58;12.63;;;;;;;15.53;100.00;101934.63;7380897;19;20032;-72
2022/09/05 04:38:06;;;;;;;25.50;13.55;;;;;;;15.53;100.00;101933.72;7376118;19;20003;-72
2022/09/05 04:40:48;;;;;;;26.35;13.70;;;;;;;15.52;100.00;101939.91;7379036;19;20401;-72
2022/09/05 04:43:34;;;;;;;21.77;12.63;;;;;;;15.52;100.00;101940.78;7381371;19;20442;-72
2022/09/05 04:46:15;;;;;;;25.83;13.48;;;;;;;15.58;100.00;101945.28;7378468;19;20017;-71
2022/09/05 04:48:51;;;;;;;;;;;;;;;15.58;100.00;101945.28;7377245;19;20081;-71
2022/09/05 04:51:45;;;;;;;25.55;13.02;;;;;;;15.59;100.00;101947.06;7378715;19;19926;-72
2022/09/05 04:54:43;;;;;;;24.63;13.82;;;;;;;15.56;100.00;101949.63;7370387;19;20017;-72
2022/09/05 04:57:28;;;;;;;26.73;13.38;;;;;;;15.57;100.00;101954.09;7377457;19;20031;-71
2022/09/05 05:00:04;;;;;;;22.30;13.32;;;;;;;15.56;100.00;101960.22;7378903;19;20007;-72
2022/09/05 05:02:58;;;;;;;26.38;14.88;;;;;;;15.56;100.00;101957.56;7379342;19;20011;-71
2022/09/05 05:05:59;;;;;;;24.73;13.90;;;;;;;15.56;100.00;101958.44;7378904;19;20065;-72
2022/09/05 05:09:00;;;;;;;25.50;14.07;;;;;;;15.57;100.00;101956.72;7379253;19;20018;-71
2022/09/05 05:11:53;;;;;;;27.23;13.68;;;;;;;15.57;100.00;101956.72;7382608;19;20043;-72
2022/09/05 05:14:50;;;;;;;25.05;13.90;;;;;;;15.57;100.00;101962.00;7376002;19;20455;-71
2022/09/05 05:17:51;;;;;;;25.00;13.65;;;;;;;15.56;100.00;101955.81;7374343;19;20014;-71
2022/09/05 05:20:50;;;;;;;25.40;14.75;;;;;;;15.57;100.00;101962.91;7377582;19;20489;-71
2022/09/05 05:23:35;;;;;;;26.15;14.68;;;;;;;15.58;100.00;101963.78;7375835;19;20022;-71
2022/09/05 05:26:14;;;;;;;23.77;13.13;;;;;;;15.60;100.00;101967.34;7378348;19;20014;-71
2022/09/05 05:28:54;;;;;;;26.67;14.52;;;;;;;15.62;100.00;101963.81;7376735;19;20068;-73
2022/09/05 05:31:41;;;;;;;23.75;13.43;;;;;;;15.67;100.00;101967.38;7376026;19;20078;-72
2022/09/05 05:34:19;;;;;;;26.60;14.23;;;;;;;15.71;100.00;101960.38;7375366;19;20010;-71
2022/09/05 05:37:01;;;;;;;26.10;14.13;;;;;;;15.79;100.00;101957.81;7375433;19;20014;-71
2022/09/05 05:39:38;;;;;;;26.27;15.55;;;;;;;15.85;100.00;101958.75;7377331;19;20035;-71
2022/09/05 05:42:17;;;;;;;27.10;13.85;;;;;;;15.98;100.00;101963.28;7377776;19;20432;-71
2022/09/05 05:44:58;;;;;;;23.88;13.65;;;;;;;16.09;100.00;101962.47;7374029;19;20007;-71
2022/09/05 05:47:43;;;;;;;24.27;14.52;;;;;;;16.22;100.00;101959.94;7377874;19;20010;-70
2022/09/05 05:50:28;;;;;;;24.75;13.40;;;;;;;16.39;100.00;101953.91;7378588;19;20013;-74
2022/09/05 05:53:30;;;;;;;25.45;13.43;;;;;;;16.51;100.00;101954.88;7376912;19;20212;-76
2022/09/05 05:56:53;;;;;;;25.85;14.40;;;;;;;16.57;100.00;101959.31;7379108;19;20017;-74
2022/09/05 05:59:50;;;;;;;25.08;14.38;;;;;;;16.61;100.00;101959.34;7373503;19;20108;-75
2022/09/05 06:03:07;;;;;;;22.58;12.20;;;;;;;16.70;100.00;101966.47;7376046;19;20014;-75
2022/09/05 06:06:24;;;;;;;25.73;14.15;;;;;;;16.79;100.00;101969.16;7382545;19;20021;-75
2022/09/05 06:09:18;;;;;;;23.65;12.55;;;;;;;17.08;100.00;101976.38;7380568;19;20019;-76
2022/09/05 06:12:35;;;;;;;28.42;13.85;;;;;;;17.40;100.00;101968.56;7381140;19;20025;-76
2022/09/05 06:19:19;;;;;;;21.30;11.30;;;;;;;17.84;100.00;101972.19;7385009;19;20101;-71
2022/09/05 06:22:09;;;;;;;21.27;11.50;;;;;;;18.02;100.00;101973.09;7381798;19;20049;-72
2022/09/05 06:25:19;;;;;;;25.63;11.80;;;;;;;18.18;100.00;101966.91;7381441;19;20730;-71
2022/09/05 06:28:17;;;;;;;22.58;11.18;;;;;;;18.59;100.00;101966.88;7382972;19;20019;-74
2022/09/05 06:31:35;;;;;;;19.60;10.05;;;;;;;18.73;100.00;101966.84;7386586;19;20018;-71
2022/09/05 06:34:47;;;;;;;17.90;9.48;;;;;;;18.84;100.00;101965.94;7381609;19;20010;-71
2022/09/05 06:38:14;;;;;;;16.70;9.90;;;;;;;19.00;100.00;101972.09;7380820;19;20045;-72
2022/09/05 06:41:26;;;;;;;18.30;10.25;;;;;;;19.05;100.00;101975.59;7385678;19;20022;-71
2022/09/05 06:48:01;;;;;;;17.90;9.85;;;;;;;19.43;100.00;101983.44;7380435;19;20011;-71
2022/09/05 06:58:59;;;;;;;20.52;9.90;;;;;;;20.18;100.00;101993.59;7385504;19;20361;-72
2022/09/05 07:02:34;;;;;;;;;;;;;;;;;;;;;
2022/09/05 07:12:32;;;;;;;18.23;9.02;;;;;;;21.56;100.00;101996.56;7377755;19;20027;-72
2022/09/05 07:15:40;;;;;;;18.98;9.45;;;;;;;21.74;100.00;102006.97;7381476;19;20114;-72
2022/09/05 07:18:51;;;;;;;24.85;9.25;;;;;;;22.05;100.00;102003.84;7375623;19;20006;-72
2022/09/05 07:22:00;;;;;;;14.55;7.60;;;;;;;22.05;100.00;102002.06;7375228;19;20019;-73
2022/09/05 07:25:00;;;;;;;12.93;7.47;;;;;;;22.04;100.00;102007.41;7375628;19;20048;-71
2022/09/05 07:27:52;;;;;;;14.75;7.18;;;;;;;21.93;100.00;102012.91;7374414;19;20053;-72
2022/09/05 07:31:07;;;;;;;13.07;6.22;;;;;;;21.85;100.00;102026.38;7373475;19;20037;-72
2022/09/05 07:37:48;;;;;;;11.43;6.40;;;;;;;21.68;100.00;102023.09;7374622;19;20018;-71
2022/09/05 07:40:28;;;;;;;13.60;5.97;;;;;;;21.67;100.00;102028.44;7377063;19;20035;-76
2022/09/05 07:43:03;;;;;;;10.02;5.30;;;;;;;21.68;100.00;102020.41;7375615;19;20022;-76
2022/09/05 07:45:45;;;;;;;10.20;5.80;;;;;;;21.73;100.00;102017.69;7375957;19;20021;-75
2022/09/05 07:56:54;;;;;;;11.43;6.20;;;;;;;22.01;100.00;102010.09;7364336;19;20430;-74
2022/09/05 07:59:50;;;;;;;9.55;5.55;;;;;;;22.01;100.00;102027.03;7373261;19;20018;-78
2022/09/05 08:02:22;;;;;;;9.93;6.10;;;;;;;22.32;100.00;102029.25;7373395;19;20010;-78
2022/09/05 08:04:53;;;;;;;10.93;5.63;;;;;;;22.73;100.00;102020.50;7376240;19;20006;-77
2022/09/05 08:07:30;;;;;;;10.30;6.07;;;;;;;23.03;97.81;102011.91;7378650;19;20411;-78
2022/09/05 08:10:24;;;;;;;10.65;5.50;;;;;;;23.48;96.64;102017.22;7375474;19;20106;-78
2022/09/05 08:13:10;;;;;;;12.18;6.22;;;;;;;23.84;94.29;102018.22;7368346;19;20015;-79
2022/09/05 08:16:03;;;;;;;12.02;5.55;;;;;;;24.21;90.37;102023.56;7368376;19;20155;-78
2022/09/05 08:18:48;;;;;;;10.13;5.63;;;;;;;24.55;84.19;102018.25;7368331;19;20006;-76
2022/09/05 08:21:23;;;;;;;7.45;4.10;;;;;;;24.65;80.21;102025.16;7370655;19;20023;-77
2022/09/05 08:24:08;;;;;;;9.93;5.13;;;;;;;24.94;82.57;102027.03;7374651;19;20014;-80
2022/09/05 08:26:47;;;;;;;7.32;4.78;;;;;;;25.09;80.37;102021.25;7372581;19;20014;-80
2022/09/05 08:29:30;;;;;;;9.73;4.53;;;;;;;24.87;81.45;102020.09;7375412;19;20028;-80
2022/09/05 08:32:08;;;;;;;12.38;4.70;;;;;;;24.62;82.04;102018.97;7377753;19;20031;-80
2022/09/05 08:34:43;;;;;;;7.65;4.30;;;;;;;24.57;78.90;102019.09;7379243;19;20019;-79
2022/09/05 08:37:20;;;;;;;8.63;4.20;;;;;;;24.62;80.62;102008.25;7383002;19;20014;-80
2022/09/05 08:39:54;;;;;;;8.45;4.40;;;;;;;24.37;77.43;102008.00;7385972;19;20364;-79
2022/09/05 08:42:47;;;;;;;8.07;3.55;;;;;;;24.60;76.73;102010.97;7379948;19;20006;-80
2022/09/05 08:45:41;;;;;;;9.48;3.30;;;;;;;24.93;70.56;102001.13;7377958;19;20015;-75
2022/09/05 08:48:53;;;;;;;7.20;3.42;;;;;;;25.63;70.78;101999.06;7383899;19;20016;-77
2022/09/05 08:51:42;;;;;;;6.43;3.60;;;;;;;26.08;67.98;102010.16;7376856;19;20018;-81
2022/09/05 08:54:35;;;;;;;6.40;3.42;;;;;;;26.09;63.98;102021.78;7370937;19;20208;-79
2022/09/05 08:57:19;;;;;;;9.93;3.88;;;;;;;26.42;65.19;102009.06;7373481;19;20035;-80
2022/09/05 08:59:59;;;;;;;10.05;3.63;;;;;;;26.75;61.98;102012.38;7379234;19;20014;-78
2022/09/05 09:03:07;;;;;;;7.68;3.72;;;;;;;26.83;62.08;101994.16;7378426;19;20433;-78
2022/09/05 09:06:08;;;;;;;9.43;3.45;;;;;;;27.02;59.60;101997.09;7376112;19;20006;-76
2022/09/05 09:09:05;;;;;;;7.70;3.65;;;;;;;27.22;59.31;101996.31;7372884;19;20007;-78
2022/09/05 09:11:42;;;;;;;9.57;3.63;;;;;;;26.43;60.05;102000.06;7376642;19;20014;-77
2022/09/05 09:14:37;;;;;;;7.38;3.60;;;;;;;26.37;61.94;101997.56;7375125;19;20035;-77
2022/09/05 09:17:21;;;;;;;6.90;3.30;;;;;;;26.55;62.25;101990.69;7371713;19;20026;-77
2022/09/05 09:20:06;;;;;;;7.72;3.40;;;;;;;26.30;62.76;101991.50;7376257;19;20542;-79
2022/09/05 09:22:47;;;;;;;5.72;3.13;;;;;;;26.17;63.34;101994.66;7373774;19;20011;-80
2022/09/05 09:25:23;;;;;;;10.40;3.60;;;;;;;26.23;62.91;102000.69;7376760;19;20026;-80
2022/09/05 09:28:28;;;;;;;7.28;3.45;;;;;;;26.30;62.71;101993.31;7374510;19;20033;-80
2022/09/05 09:31:29;;;;;;;8.77;3.38;;;;;;;26.26;63.79;101989.84;7375781;19;20018;-79
2022/09/05 09:34:15;;;;;;;7.90;3.38;;;;;;;26.35;62.41;101986.88;7370652;19;20611;-79
2022/09/05 09:37:17;;;;;;;5.47;3.22;;;;;;;26.61;63.59;101993.16;7369125;19;20019;-80
2022/09/05 09:40:38;;;;;;;6.47;3.60;;;;;;;26.96;62.13;101989.19;7374316;19;20014;-77
2022/09/05 09:43:22;;;;;;;4.82;2.88;;;;;;;27.01;62.05;101988.13;7372356;19;20014;-79
2022/09/05 09:46:14;;;;;;;6.80;3.30;;;;;;;26.82;62.68;101987.00;7370838;19;20006;-78
2022/09/05 09:49:06;;;;;;;8.65;3.30;;;;;;;26.68;61.36;101979.44;7370631;19;20057;-74
2022/09/05 09:52:21;;;;;;;6.68;3.28;;;;;;;27.20;61.07;101979.31;7386202;19;20303;-74
2022/09/05 09:55:40;;;;;;;9.30;3.55;;;;;;;27.74;56.95;101979.03;7384233;19;20411;-74
2022/09/05 09:58:42;;;;;;;6.00;3.30;;;;;;;28.03;56.70;101974.25;7381279;19;20038;-74
2022/09/05 10:01:23;;;;;;;7.47;3.42;;;;;;;28.05;56.35;101962.47;7385051;19;20411;-73
2022/09/05 10:04:50;;;;;;;7.85;3.58;;;;;;;28.22;55.82;101968.03;7389042;19;20014;-73
2022/09/05 10:08:18;;;;;;;7.43;3.65;;;;;;;27.99;56.32;101969.00;7384096;19;20358;-74
2022/09/05 10:11:25;;;;;;;8.57;3.65;;;;;;;28.15;54.52;101960.22;7392009;19;20355;-73
2022/09/05 10:14:48;;;;;;;8.35;3.47;;;;;;;28.38;55.55;101964.66;7378028;19;20011;-74
2022/09/05 10:17:58;;;;;;;6.70;3.50;;;;;;;28.68;53.64;101952.53;7381537;19;20015;-73
2022/09/05 10:20:48;;;;;;;10.23;3.33;;;;;;;28.88;55.01;101957.94;7383718;19;20014;-74
2022/09/05 10:24:24;;;;;;;7.40;3.53;;;;;;;28.43;53.22;101951.84;7384425;19;20017;-73
2022/09/05 11:05:01;;;;;;;6.65;3.25;;;;;;;29.50;49.82;101931.63;7376444;19;20030;-75
2022/09/05 11:07:40;;;;;;;;;;;;;;;29.89;49.10;101945.00;7382905;19;20010;-74
2022/09/05 11:10:16;;;;;;;6.18;3.30;;;;;;;29.96;49.06;101943.75;7380053;19;19911;-74
2022/09/05 11:13:22;;;;;;;5.72;3.20;;;;;;;30.14;48.21;101940.13;7374583;19;20044;-74
2022/09/05 11:16:26;;;;;;;7.50;3.22;;;;;;;30.41;49.34;101936.94;7374842;19;20082;-74
2022/09/05 11:19:02;;;;;;;7.10;3.40;;;;;;;30.62;47.54;101943.94;7375206;19;20073;-75
2022/09/05 11:21:55;;;;;;;7.07;3.20;;;;;;;30.54;47.29;101943.44;7375145;19;20041;-74
2022/09/05 11:24:56;;;;;;;7.70;3.00;;;;;;;31.29;46.27;101936.69;7369506;19;20098;-76
2022/09/05 11:27:38;;;;;;;7.03;3.30;;;;;;;30.87;44.60;101930.84;7371353;19;20177;-76
2022/09/05 11:30:15;;;;;;;9.20;3.55;;;;;;;30.94;44.82;101930.50;7373439;19;20019;-75
2022/09/05 11:33:19;;;;;;;6.05;2.90;;;;;;;30.31;44.88;101935.66;7374970;19;20011;-73
2022/09/05 11:36:16;;;;;;;6.45;2.90;;;;;;;30.81;43.47;101930.28;7375253;19;20018;-74
2022/09/05 11:39:19;;;;;;;5.85;2.90;;;;;;;30.19;43.97;101929.03;7378391;19;20090;-75
2022/09/05 11:42:40;;;;;;;7.95;3.10;;;;;;;30.23;43.99;101927.94;7378772;19;20027;-73
2022/09/05 11:45:35;;;;;;;6.80;3.10;;;;;;;30.51;43.79;101917.41;7381632;19;20023;-74
2022/09/05 11:48:36;;;;;;;5.35;2.53;;;;;;;31.04;42.96;101937.16;7383387;19;20026;-73
2022/09/05 11:51:48;;;;;;;4.97;2.50;;;;;;;30.63;43.33;101920.47;7385381;19;20010;-73
2022/09/05 11:55:03;;;;;;;5.72;2.80;;;;;;;30.87;43.40;101924.53;7377878;19;20006;-74
2022/09/05 11:57:53;;;;;;;4.88;2.67;;;;;;;30.93;42.24;101917.91;7383012;19;20022;-74
2022/09/05 12:00:43;;;;;;;6.43;2.83;;;;;;;30.96;42.16;101912.31;7383660;19;20009;-73
2022/09/05 12:03:44;;;;;;;6.15;2.70;;;;;;;31.32;41.75;101920.25;7381336;19;20029;-74
2022/09/05 12:07:04;;;;;;;5.40;2.75;;;;;;;31.11;41.11;101917.78;7384674;19;20019;-74
2022/09/05 12:10:13;;;;;;;8.35;2.90;;;;;;;30.63;42.97;101915.03;7382401;19;20018;-73
2022/09/05 12:13:30;;;;;;;4.82;2.60;;;;;;;31.08;41.49;101906.22;7384893;19;20482;-72
2022/09/05 12:16:03;;;;;;;3.17;2.67;;;;;;;31.20;42.24;101906.41;7387045;19;20106;-74
2022/09/05 12:18:45;;;;;;;4.05;2.97;;;;;;;31.32;42.20;101898.56;7387676;19;20014;-73
2022/09/05 12:21:31;;;;;;;5.15;2.58;;;;;;;31.40;41.17;101902.56;7387720;19;20103;-72
2022/09/05 12:24:13;;;;;;;4.20;2.63;;;;;;;31.45;41.22;101905.03;7389741;19;20003;-73
2022/09/05 12:27:09;;;;;;;6.57;3.00;;;;;;;31.57;42.41;101900.72;7389785;19;20017;-74
2022/09/05 12:30:09;;;;;;;4.18;2.50;;;;;;;31.55;41.32;101901.69;7390302;19;20011;-74
2022/09/05 12:32:52;;;;;;;5.63;2.78;;;;;;;31.74;40.78;101900.66;7383695;19;20096;-74
2022/09/05 12:35:46;;;;;;;9.05;3.38;;;;;;;31.57;40.81;101901.59;7382986;19;20483;-79
2022/09/05 12:38:47;;;;;;;6.68;3.30;;;;;;;31.76;40.92;101898.72;7382216;19;20006;-74
2022/09/05 12:41:47;;;;;;;4.10;2.70;;;;;;;30.87;41.04;101902.88;7383818;19;20011;-74
2022/09/05 12:44:49;;;;;;;4.50;3.00;;;;;;;31.09;42.01;101900.72;7382250;19;20013;-74
2022/09/05 12:47:24;;;;;;;7.88;3.08;;;;;;;31.09;42.40;101902.56;7382402;19;20007;-73
2022/09/05 12:50:15;;;;;;;5.32;2.75;;;;;;;31.10;41.54;101898.88;7383805;19;20070;-72
2022/09/05 12:52:47;;;;;;;4.15;2.75;;;;;;;31.41;41.13;101898.03;7375071;19;20312;-73
2022/09/05 12:55:27;;;;;;;5.63;2.80;;;;;;;31.50;41.57;101881.22;7381923;19;20086;-74
2022/09/05 12:58:03;;;;;;;5.45;2.97;;;;;;;31.75;40.77;101886.13;7379204;19;20301;-73
2022/09/05 13:00:58;;;;;;;7.90;3.10;;;;;;;31.96;40.85;101882.16;7383103;19;20021;-73
2022/09/05 13:04:00;;;;;;;4.68;2.78;;;;;;;32.07;39.61;101884.22;7382342;19;20066;-73
2022/09/05 13:06:59;;;;;;;5.25;2.85;;;;;;;32.14;40.72;101881.03;7381449;19;20010;-74
2022/09/05 13:09:34;;;;;;;5.18;2.63;;;;;;;32.18;40.81;101879.88;7380338;19;20039;-74
2022/09/05 13:12:30;;;;;;;5.70;3.08;;;;;;;32.25;40.97;101885.81;7381004;19;20445;-73
2022/09/05 13:15:31;;;;;;;6.15;3.08;;;;;;;32.14;41.19;101880.16;7382063;19;20043;-74
2022/09/05 13:18:09;;;;;;;4.85;2.90;;;;;;;31.84;42.37;101888.31;7379955;19;20436;-74
2022/09/05 13:20:50;;;;;;;6.65;2.95;;;;;;;31.45;42.66;101892.34;7380865;19;20346;-74
2022/09/05 13:23:29;;;;;;;6.82;3.15;;;;;;;31.06;42.70;101886.47;7381425;19;20032;-73
2022/09/05 13:26:06;;;;;;;5.20;2.83;;;;;;;31.49;43.21;101874.94;7377697;19;20117;-74
2022/09/05 13:28:53;;;;;;;5.50;2.95;;;;;;;31.59;43.78;101875.28;7381199;19;20047;-73
2022/09/05 13:32:08;;;;;;;4.55;3.03;;;;;;;31.31;44.06;101880.53;7380990;19;20513;-73
2022/09/05 13:35:03;;;;;;;4.50;2.83;;;;;;;31.29;43.04;101877.91;7381160;19;20654;-79
2022/09/05 13:38:06;;;;;;;7.15;2.90;;;;;;;31.09;43.43;101875.47;7379366;19;20360;-78
2022/09/05 13:41:00;;;;;;;6.13;3.22;;;;;;;31.26;43.66;101875.38;7379429;19;20265;-78
2022/09/05 13:43:38;;;;;;;5.78;3.05;;;;;;;31.18;43.27;101874.97;7379453;19;20058;-79
2022/09/05 13:46:15;;;;;;;6.25;3.30;;;;;;;31.44;44.11;101881.59;7381054;19;20127;-78
2022/09/05 13:48:54;;;;;;;6.00;2.90;;;;;;;31.60;44.37;101871.59;7377882;19;20020;-78
2022/09/05 13:51:49;;;;;;;9.10;3.15;;;;;;;31.46;44.45;101871.53;7379398;19;20015;-78
2022/09/05 13:54:46;;;;;;;4.35;3.05;;;;;;;31.25;44.66;101872.75;7372955;19;20516;-78
2022/09/05 13:57:38;;;;;;;5.57;3.15;;;;;;;31.22;46.16;101865.69;7378555;19;20014;-77
2022/09/05 14:00:45;;;;;;;5.93;3.42;;;;;;;30.82;46.68;101862.50;7380460;19;20030;-78
2022/09/05 14:03:41;;;;;;;6.28;2.95;;;;;;;31.09;46.76;101853.78;7376975;19;20085;-77
2022/09/05 14:06:46;;;;;;;6.70;3.47;;;;;;;30.90;47.44;101846.69;7375389;19;20015;-77
2022/09/05 14:09:58;;;;;;;8.98;5.90;;;;;;;30.61;50.91;101846.56;7380078;19;20018;-77
2022/09/05 14:12:37;;;;;;;8.23;4.38;;;;;;;30.54;52.27;101851.41;7377087;19;20010;-77
2022/09/05 14:15:23;;;;;;;7.45;3.40;;;;;;;30.53;52.34;101846.94;7376935;19;20109;-77
2022/09/05 14:18:03;;;;;;;7.53;3.63;;;;;;;30.68;52.25;101847.97;7377488;19;20019;-79
2022/09/05 14:23:44;;;;;;;7.78;3.78;;;;;;;30.14;52.39;101845.44;7380449;19;20023;-72
2022/09/05 14:26:23;;;;;;;6.43;3.38;;;;;;;30.23;52.88;101847.63;7377232;19;20006;-73
2022/09/05 14:29:05;;;;;;;6.40;3.85;;;;;;;30.03;55.05;101845.13;7378667;19;20543;-71